»·PEaware :: N551L KCNO-KSAN

N551L :: KCNO-KSAN

FLIGHT INFORMATION

Flight Status: Arrived
Operator: Privately registered:
United States
More flights under this callsign
Pilot: Luis B. (14579)
Aircraft: PIPER PA-34 SENECA
(PA34)
More flights by this aircraft type
Origin: KCNO Chino
United States
Destination: KSAN San Diego Intl-Lindbergh
United States
More flights between these airports :: More routes between these airports
Route: +PDZ V186 HAILE V66 MZB
File this flight plan on PilotEdge
Remarks:
Altitude:
(Current/Filed)
9,000ft
Speed:
(Current/Filed)
140kts
Departed: 08-May-18 09:17 PM
Arrived: 08-May-18 10:54 PM
Distance/Time
Traveled:
78nm/1:37
Distance/Time
To Go:
Arrived

Flight Plot

Page will automatically refresh every two minutes.


Map Options




Map Legend


Flown Route
Filed Route
Departure Airport
Arrival Airport
Navaid (VOR, NDB)
Fix

Horizontal Profiles

Position Reports

Time Latitude Longitude Heading Altitude Ground
Speed
08-May-18 20:46 33.980349 -117.643073 267 655ft 0kts
08-May-18 20:47 33.980349 -117.643075 267 655ft 0kts
08-May-18 20:48 33.980349 -117.643077 267 655ft 0kts
08-May-18 20:49 33.980349 -117.643079 267 655ft 0kts
08-May-18 20:50 33.980349 -117.643081 267 655ft 0kts
08-May-18 20:51 33.980349 -117.643083 267 655ft 0kts
08-May-18 20:52 33.980349 -117.643085 267 655ft 0kts
08-May-18 20:53 33.980349 -117.643087 268 655ft 0kts
08-May-18 20:54 33.980349 -117.643089 268 655ft 0kts
08-May-18 20:55 33.980349 -117.643091 268 655ft 0kts
08-May-18 20:56 33.980349 -117.643093 268 655ft 0kts
08-May-18 20:57 33.980349 -117.643095 268 655ft 0kts
08-May-18 20:58 33.980348 -117.643097 268 655ft 0kts
08-May-18 20:59 33.980348 -117.643098 268 655ft 0kts
08-May-18 21:00 33.980348 -117.643100 268 655ft 0kts
08-May-18 21:01 33.980348 -117.643102 268 655ft 0kts
08-May-18 21:02 33.980348 -117.643104 268 655ft 0kts
08-May-18 21:03 33.980348 -117.643106 268 655ft 0kts
08-May-18 21:04 33.980348 -117.643108 268 655ft 0kts
08-May-18 21:05 33.980348 -117.643110 268 655ft 0kts
08-May-18 21:06 33.980348 -117.643111 268 655ft 0kts
08-May-18 21:07 33.980348 -117.643113 268 655ft 0kts
08-May-18 21:08 33.980078 -117.644114 135 655ft 0kts
08-May-18 21:09 33.978677 -117.643005 170 655ft 10kts
08-May-18 21:10 33.977368 -117.642500 106 655ft 12kts
08-May-18 21:11 33.977323 -117.637964 90 655ft 17kts
08-May-18 21:12 33.977307 -117.632807 90 655ft 19kts
08-May-18 21:13 33.977012 -117.631087 169 655ft 0kts
08-May-18 21:14 33.976706 -117.631049 175 655ft 0kts
08-May-18 21:15 33.976703 -117.631048 175 655ft 0kts
08-May-18 21:16 33.976700 -117.631048 175 655ft 0kts
08-May-18 21:17 33.975779 -117.638511 268 655ft 65kts
08-May-18 21:18 33.974384 -117.665411 273 1011ft 92kts
08-May-18 21:19 33.976280 -117.695437 271 1820ft 86kts
08-May-18 21:20 33.977701 -117.726816 271 2884ft 101kts
08-May-18 21:21 33.979134 -117.761983 272 4006ft 127kts
08-May-18 21:22 33.981151 -117.814266 272 3904ft 169kts
08-May-18 21:23 33.983431 -117.871463 272 3900ft 171kts
08-May-18 21:24 33.985671 -117.928421 272 3898ft 169kts
08-May-18 21:25 33.987469 -117.985198 272 3899ft 169kts
08-May-18 21:26 33.989159 -118.042199 272 3899ft 170kts
08-May-18 21:27 33.975431 -118.090607 190 3906ft 171kts
08-May-18 21:28 33.946907 -118.053953 93 4000ft 169kts
08-May-18 21:29 33.951357 -117.996268 72 4409ft 178kts
08-May-18 21:30 33.963901 -117.937312 75 4857ft 183kts
08-May-18 21:31 33.974129 -117.876400 77 5345ft 184kts
08-May-18 21:32 33.980940 -117.817971 81 6317ft 176kts
08-May-18 21:33 33.984533 -117.757402 87 7224ft 182kts
08-May-18 21:34 33.983305 -117.696013 98 8145ft 187kts
08-May-18 21:35 33.965686 -117.636376 119 9047ft 196kts
08-May-18 21:36 33.939180 -117.575932 121 8998ft 203kts
08-May-18 21:37 33.907140 -117.523310 146 9002ft 192kts
08-May-18 21:38 33.863558 -117.486292 151 8999ft 190kts
08-May-18 21:39 33.819206 -117.450719 151 9001ft 195kts
08-May-18 21:40 33.807625 -117.441475 151 9001ft 196kts
08-May-18 21:53 33.981247 -117.645173 270 660ft 0kts
08-May-18 21:54 33.981247 -117.645182 270 660ft 0kts
08-May-18 21:55 33.981247 -117.645190 270 660ft 0kts
08-May-18 21:56 33.981247 -117.645199 270 660ft 0kts
08-May-18 21:57 33.981247 -117.645207 270 660ft 0kts
08-May-18 21:58 33.981247 -117.645216 270 660ft 0kts
08-May-18 21:59 33.981247 -117.645224 270 660ft 0kts
08-May-18 22:00 33.981247 -117.645231 270 660ft 0kts
08-May-18 22:01 33.981247 -117.645237 270 660ft 0kts
08-May-18 22:02 33.981247 -117.645243 270 660ft 0kts
08-May-18 22:03 33.981246 -117.645036 270 660ft 2kts
08-May-18 22:04 33.981245 -117.644425 270 660ft 0kts
08-May-18 22:05 33.981220 -117.644507 226 660ft 0kts
08-May-18 22:06 33.980688 -117.644722 198 660ft 4kts
08-May-18 22:07 33.977947 -117.645167 178 660ft 10kts
08-May-18 22:08 33.977339 -117.642823 89 660ft 15kts
08-May-18 22:09 33.977332 -117.639784 89 660ft 22kts
08-May-18 22:10 33.977313 -117.633714 90 660ft 11kts
08-May-18 22:11 33.976779 -117.631084 174 660ft 10kts
08-May-18 22:12 33.974984 -117.629792 91 660ft 9kts
08-May-18 22:13 33.974959 -117.625364 90 660ft 13kts
08-May-18 22:14 33.974428 -117.623910 174 660ft 0kts
08-May-18 22:15 33.974422 -117.623910 174 660ft 0kts
08-May-18 22:16 33.974417 -117.623909 174 660ft 0kts
08-May-18 22:17 33.974412 -117.623909 174 660ft 0kts
08-May-18 22:18 33.974318 -117.623893 169 660ft 6kts
08-May-18 22:19 33.973630 -117.624844 271 660ft 41kts
08-May-18 22:20 33.973318 -117.690044 269 1780ft 270kts
08-May-18 22:21 33.975325 -117.768171 272 3389ft 221kts
08-May-18 22:22 33.978296 -117.844061 272 3995ft 229kts
08-May-18 22:23 33.975223 -117.917548 234 5404ft 233kts
08-May-18 22:24 33.928274 -117.892251 106 7125ft 256kts
08-May-18 22:25 33.927431 -117.809738 71 8736ft 271kts
08-May-18 22:26 33.947349 -117.723633 76 10365ft 281kts
08-May-18 22:27 33.951321 -117.618721 103 10999ft 293kts
08-May-18 22:27 33.923887 -117.545895 134 11002ft 284kts
08-May-18 22:28 33.863387 -117.486890 148 11000ft 280kts
08-May-18 22:30 33.787781 -117.425700 150 11000ft 280kts
08-May-18 22:31 33.722937 -117.374023 150 10999ft 280kts
08-May-18 22:32 33.658025 -117.322430 150 11000ft 280kts
08-May-18 22:33 33.592876 -117.270744 150 11000ft 280kts
08-May-18 22:34 33.538788 -117.227898 150 11000ft 280kts
08-May-18 22:35 33.469439 -117.189477 168 11001ft 273kts
08-May-18 22:36 33.395501 -117.168298 171 11000ft 272kts
08-May-18 22:37 33.323144 -117.171902 201 11001ft 259kts
08-May-18 22:38 33.256022 -117.197962 207 10997ft 248kts
08-May-18 22:39 33.191691 -117.237315 211 9148ft 267kts
08-May-18 22:40 33.124852 -117.281063 212 7039ft 281kts
08-May-18 22:41 33.056168 -117.326819 211 5048ft 271kts
08-May-18 22:42 32.997286 -117.367594 211 4109ft 233kts
08-May-18 22:43 32.944312 -117.406630 212 3025ft 209kts
08-May-18 22:44 32.896970 -117.442390 212 3004ft 203kts
08-May-18 22:45 32.848511 -117.478979 212 3000ft 206kts
08-May-18 22:46 32.804428 -117.466036 126 3026ft 211kts
08-May-18 22:47 32.804428 -117.466036 126 3026ft 211kts
08-May-18 22:48 32.778842 -117.431511 132 2997ft 208kts
08-May-18 22:49 32.745152 -117.381741 99 2960ft 186kts
08-May-18 22:50 32.766534 -117.330001 90 3008ft 179kts
08-May-18 22:51 32.754065 -117.273765 106 2276ft 180kts
08-May-18 22:52 32.740337 -117.217849 106 268ft 165kts
08-May-18 22:53 32.731031 -117.179409 104 23ft 56kts
08-May-18 22:54 32.731110 -117.174653 290 23ft 0kts

Navigation Log

Ident Type
1. KCNO Airport
2. PDZ Navaid
3. NIKKL Fix
4. WESIN Fix
5. TANNR Fix
6. DEGLE Fix
7. ROBNN Fix
8. HAILE Fix
9. MZB Navaid
10. KSAN Airport